createdAt,value
2018-05-01T00:00:26.803Z,5.37
2018-05-01T00:02:54.898Z,4.50
2018-05-01T00:05:23.014Z,5.80
2018-05-01T00:07:51.136Z,5.80
2018-05-01T00:10:19.233Z,5.70
2018-05-01T00:12:47.342Z,4.67
2018-05-01T00:15:15.455Z,5.00
2018-05-01T00:17:43.538Z,4.33
2018-05-01T00:20:11.646Z,4.50
2018-05-01T00:22:39.734Z,4.60
2018-05-01T00:25:07.833Z,4.90
2018-05-01T00:27:35.938Z,4.90
2018-05-01T00:30:04.043Z,5.23
2018-05-01T00:32:32.915Z,4.30
2018-05-01T00:35:01.003Z,5.00
2018-05-01T00:37:29.859Z,3.73
2018-05-01T00:39:57.952Z,4.83
2018-05-01T00:42:26.066Z,4.40
2018-05-01T00:44:54.555Z,4.50
2018-05-01T00:47:22.653Z,4.00
2018-05-01T00:49:50.754Z,4.20
2018-05-01T00:52:30.765Z,4.03
2018-05-01T00:54:59.002Z,3.17
2018-05-01T00:57:27.102Z,6.23
2018-05-01T00:59:55.206Z,3.97
2018-05-01T01:02:23.286Z,3.80
2018-05-01T01:04:51.447Z,3.67
2018-05-01T01:07:19.720Z,2.77
2018-05-01T01:09:52.110Z,3.23
2018-05-01T01:12:20.214Z,2.63
2018-05-01T01:14:49.106Z,2.23
2018-05-01T01:17:17.204Z,2.37
2018-05-01T01:19:45.371Z,1.67
2018-05-01T01:22:13.394Z,11.40
2018-05-01T01:24:41.483Z,1.87
2018-05-01T01:27:09.585Z,0.97
2018-05-01T01:29:37.690Z,0.87
2018-05-01T01:32:14.530Z,1.30
2018-05-01T01:34:42.629Z,0.90
2018-05-01T01:37:10.266Z,0.63
2018-05-01T01:39:37.878Z,1.00
2018-05-01T01:42:05.488Z,1.93
2018-05-01T01:44:33.090Z,2.93
2018-05-01T01:47:00.714Z,0.50
2018-05-01T01:49:28.331Z,0.50
2018-05-01T01:51:55.937Z,0.60
2018-05-01T01:54:23.537Z,0.50
2018-05-01T01:56:51.148Z,1.80
2018-05-01T01:59:18.746Z,0.37
2018-05-01T02:01:46.373Z,3.97
2018-05-01T02:04:14.002Z,0.17
2018-05-01T02:06:41.598Z,0.50
2018-05-01T02:09:09.224Z,0.20
2018-05-01T02:11:36.825Z,0.30
2018-05-01T02:14:04.440Z,0.77
2018-05-01T02:16:32.051Z,1.40
2018-05-01T02:18:59.673Z,0.10
2018-05-01T02:21:27.281Z,0.33
2018-05-01T02:23:54.882Z,0.20
2018-05-01T02:26:23.250Z,0.10
2018-05-01T02:28:51.618Z,0.63
2018-05-01T02:31:19.294Z,0.47
2018-05-01T02:33:47.652Z,1.60
2018-05-01T02:36:15.275Z,0.37
2018-05-01T02:38:42.880Z,0.23
2018-05-01T02:41:10.558Z,0.53
2018-05-01T02:43:38.115Z,0.30
2018-05-01T02:46:05.728Z,2.00
2018-05-01T02:48:33.339Z,0.17
2018-05-01T02:51:00.948Z,2.47
2018-05-01T02:53:28.552Z,0.60
2018-05-01T02:55:56.150Z,0.10
2018-05-01T02:58:23.768Z,0.40
2018-05-01T03:00:51.392Z,0.43
2018-05-01T03:03:18.999Z,0.30
2018-05-01T03:05:46.616Z,0.67
2018-05-01T03:08:14.234Z,0.53
2018-05-01T03:10:41.871Z,0.20
2018-05-01T03:13:10.252Z,0.23
2018-05-01T03:15:38.623Z,0.13
2018-05-01T03:18:06.240Z,0.10
2018-05-01T03:20:33.851Z,0.93
2018-05-01T03:23:01.478Z,0.00
2018-05-01T03:25:29.083Z,0.40
2018-05-01T03:27:56.693Z,0.10
2018-05-01T03:30:24.291Z,0.30
2018-05-01T03:32:51.907Z,0.77
2018-05-01T03:35:19.515Z,0.40
2018-05-01T03:37:47.126Z,0.30
2018-05-01T03:40:14.744Z,0.20
2018-05-01T03:42:42.359Z,0.30
2018-05-01T03:45:10.739Z,1.37
2018-05-01T03:47:39.112Z,1.77
2018-05-01T03:50:06.724Z,0.87
2018-05-01T03:52:34.328Z,1.20
2018-05-01T03:55:01.942Z,0.30
2018-05-01T03:57:29.556Z,0.30
2018-05-01T03:59:57.159Z,0.40
2018-05-01T04:02:24.783Z,0.37
2018-05-01T04:04:52.408Z,0.30
2018-05-01T04:07:20.013Z,0.20
2018-05-01T04:09:47.607Z,0.33
2018-05-01T04:12:15.239Z,1.77
2018-05-01T04:14:42.858Z,0.10
2018-05-01T04:17:10.483Z,1.10
2018-05-01T04:19:38.100Z,1.37
2018-05-01T04:22:05.715Z,0.97
2018-05-01T04:24:33.327Z,3.70
2018-05-01T04:27:00.955Z,1.40
2018-05-01T04:29:29.327Z,1.40
2018-05-01T04:31:56.955Z,0.60
2018-05-01T04:34:24.563Z,1.20
2018-05-01T04:36:52.166Z,1.17
2018-05-01T04:39:19.795Z,1.00
2018-05-01T04:41:47.415Z,0.30
2018-05-01T04:44:15.044Z,1.10
2018-05-01T04:46:43.407Z,0.67
2018-05-01T04:49:11.023Z,2.57
2018-05-01T04:51:38.645Z,0.50
2018-05-01T04:54:06.251Z,1.70
2018-05-01T04:56:33.871Z,3.23
2018-05-01T04:59:01.464Z,0.50
2018-05-01T05:01:29.071Z,0.33
2018-05-01T05:03:56.669Z,3.50
2018-05-01T05:06:24.275Z,0.30
2018-05-01T05:08:51.895Z,0.63
2018-05-01T05:11:19.511Z,0.70
2018-05-01T05:13:47.148Z,1.20
2018-05-01T05:16:14.759Z,6.03
2018-05-01T05:18:42.391Z,2.50
2018-05-01T05:21:10.326Z,1.43
2018-05-01T05:23:37.940Z,1.73
2018-05-01T05:26:05.555Z,1.03
2018-05-01T05:28:33.172Z,3.17
2018-05-01T05:31:00.779Z,0.53
2018-05-01T05:33:28.406Z,1.40
2018-05-01T05:35:56.188Z,2.33
2018-05-01T05:38:23.787Z,4.73
2018-05-01T05:40:51.408Z,1.80
2018-05-01T05:43:19.026Z,0.80
2018-05-01T05:45:46.652Z,5.07
2018-05-01T05:48:14.263Z,2.60
2018-05-01T06:02:24.861Z,1.60
2018-05-01T06:04:52.459Z,2.17
2018-05-01T06:07:20.067Z,2.10
2018-05-01T06:09:47.682Z,3.97
2018-05-01T06:12:15.313Z,2.43
2018-05-01T06:14:42.920Z,2.10
2018-05-01T06:17:10.531Z,1.60
2018-05-01T06:19:38.156Z,0.83
2018-05-01T06:22:05.922Z,3.70
2018-05-01T06:24:33.400Z,3.20
2018-05-01T06:27:01.019Z,3.40
2018-05-01T06:29:28.639Z,2.07
2018-05-01T06:31:57.039Z,3.10
2018-05-01T06:34:25.409Z,4.57
2018-05-01T06:36:53.037Z,1.77
2018-05-01T06:39:20.620Z,4.20
2018-05-01T06:41:48.229Z,1.70
2018-05-01T06:44:15.852Z,5.17
2018-05-01T06:46:43.485Z,2.53
2018-05-01T06:49:11.115Z,1.77
2018-05-01T06:51:39.489Z,0.37
2018-05-01T06:54:07.864Z,2.37
2018-05-01T06:56:36.236Z,2.17
2018-05-01T06:59:03.852Z,2.87
2018-05-01T07:01:31.464Z,2.93
2018-05-01T07:03:59.064Z,5.07
2018-05-01T07:06:26.679Z,2.80
2018-05-01T07:08:54.299Z,2.03
2018-05-01T07:11:21.917Z,2.90
2018-05-01T07:13:49.536Z,3.27
2018-05-01T07:16:17.159Z,4.23
2018-05-01T07:18:44.772Z,1.40
2018-05-01T07:21:12.414Z,1.47
2018-05-01T07:23:40.020Z,3.53
2018-05-01T07:26:07.624Z,1.93
2018-05-01T07:28:35.236Z,1.77
2018-05-01T07:31:02.851Z,3.77
2018-05-01T07:33:30.496Z,2.37
2018-05-01T07:35:58.111Z,2.53
2018-05-01T07:38:25.732Z,2.80
2018-05-01T07:40:53.340Z,3.60
2018-05-01T07:43:21.720Z,2.67
2018-05-01T07:45:50.100Z,4.23
2018-05-01T07:48:18.495Z,4.20
2018-05-01T07:50:46.113Z,1.83
2018-05-01T07:53:13.711Z,3.33
2018-05-01T07:55:42.105Z,2.10
2018-05-01T07:58:09.705Z,1.57
2018-05-01T08:00:37.307Z,3.07
2018-05-01T08:03:04.915Z,1.37
2018-05-01T08:05:32.539Z,1.47
2018-05-01T08:08:00.135Z,6.57
2018-05-01T08:10:27.763Z,2.40
2018-05-01T08:12:55.378Z,2.33
2018-05-01T08:15:22.987Z,4.33
2018-05-01T08:17:50.611Z,3.50
2018-05-01T08:20:18.225Z,3.37
2018-05-01T08:22:45.823Z,3.57
2018-05-01T08:25:13.440Z,3.53
2018-05-01T08:27:41.240Z,7.43
2018-05-01T08:30:08.845Z,4.47
2018-05-01T08:32:36.466Z,3.13
2018-05-01T08:35:04.070Z,1.27
2018-05-01T08:37:31.679Z,3.67
2018-05-01T08:39:59.304Z,6.90
2018-05-01T08:42:26.911Z,4.73
2018-05-01T08:44:54.511Z,2.10
2018-05-01T08:47:22.127Z,2.07
2018-05-01T08:49:49.740Z,2.73
2018-05-01T08:52:17.342Z,1.43
2018-05-01T08:54:44.980Z,1.53
2018-05-01T08:57:12.591Z,2.73
2018-05-01T08:59:40.207Z,1.93
2018-05-01T09:02:07.835Z,1.13
2018-05-01T09:04:35.463Z,2.97
2018-05-01T09:07:03.063Z,0.80
2018-05-01T09:09:30.730Z,3.10
2018-05-01T09:11:58.292Z,2.13
2018-05-01T09:14:25.967Z,2.00
2018-05-01T09:16:53.556Z,2.50
2018-05-01T09:19:21.173Z,2.60
2018-05-01T09:21:48.768Z,2.47
2018-05-01T09:24:16.373Z,2.50
2018-05-01T09:26:44.025Z,4.10
2018-05-01T09:29:11.642Z,1.83
2018-05-01T09:31:39.264Z,2.00
2018-05-01T09:34:06.867Z,3.77
2018-05-01T09:36:34.483Z,5.33
2018-05-01T09:39:02.113Z,2.23
2018-05-01T09:41:29.727Z,1.67
2018-05-01T09:43:57.343Z,3.23
2018-05-01T09:46:24.951Z,3.53
2018-05-01T09:48:53.345Z,4.23
2018-05-01T09:51:20.951Z,3.50
2018-05-01T09:53:49.106Z,7.27
2018-05-01T09:56:17.255Z,6.07
2018-05-01T09:58:45.364Z,4.37
2018-05-01T10:01:13.516Z,4.33
2018-05-01T10:03:41.647Z,2.80
2018-05-01T10:06:09.843Z,3.63
2018-05-01T10:08:37.953Z,3.27
2018-05-01T10:11:06.072Z,5.03
2018-05-01T10:13:34.163Z,6.60
2018-05-01T10:16:02.300Z,5.60
2018-05-01T10:18:30.393Z,6.33
2018-05-01T10:20:58.518Z,6.00
2018-05-01T10:23:29.300Z,9.30
2018-05-01T10:25:57.412Z,7.87
2018-05-01T10:28:26.031Z,3.43
2018-05-01T10:30:54.123Z,5.90
2018-05-01T10:33:22.534Z,9.17
2018-05-01T10:35:50.605Z,11.70
2018-05-01T10:38:18.736Z,7.27
2018-05-01T10:40:47.619Z,7.40
2018-05-01T10:43:16.491Z,10.10
2018-05-01T10:45:45.401Z,11.73
2018-05-01T10:48:13.656Z,12.50
2018-05-01T10:50:41.784Z,9.67
2018-05-01T10:53:10.119Z,8.60
2018-05-01T10:55:38.548Z,14.67
2018-05-01T10:58:06.742Z,10.90
2018-05-01T11:00:34.946Z,9.47
2018-05-01T11:03:02.979Z,7.13
2018-05-01T11:05:31.891Z,5.73
2018-05-01T11:07:59.995Z,11.73
2018-05-01T11:10:28.099Z,11.43
2018-05-01T11:12:56.200Z,10.33
2018-05-01T11:15:24.336Z,12.80
2018-05-01T11:17:52.736Z,7.70
2018-05-01T11:20:20.844Z,11.27
2018-05-01T11:22:49.716Z,7.17
2018-05-01T11:25:17.818Z,8.33
2018-05-01T11:27:46.676Z,14.73
2018-05-01T11:30:14.813Z,12.03
2018-05-01T11:32:42.929Z,14.53
2018-05-01T11:35:11.022Z,8.10
2018-05-01T11:37:39.912Z,9.60
2018-05-01T11:40:08.020Z,10.17
2018-05-01T11:42:36.152Z,13.27
2018-05-01T11:45:04.379Z,9.80
2018-05-01T11:47:32.418Z,16.63
2018-05-01T11:50:01.340Z,12.67
2018-05-01T11:52:29.464Z,5.90
2018-05-01T11:54:57.581Z,17.50
2018-05-01T11:57:26.487Z,7.47
2018-05-01T11:59:54.588Z,8.90
2018-05-01T12:02:22.699Z,8.77
2018-05-01T12:04:50.817Z,9.20
2018-05-01T12:07:19.264Z,15.43
2018-05-01T12:09:47.404Z,11.83
2018-05-01T12:12:15.512Z,9.93
2018-05-01T12:14:43.660Z,9.17
2018-05-01T12:17:12.580Z,13.60
2018-05-01T12:19:40.825Z,14.77
2018-05-01T12:22:08.979Z,10.00
2018-05-01T12:24:37.879Z,5.47
2018-05-01T12:27:05.981Z,11.43
2018-05-01T12:29:34.093Z,5.63
2018-05-01T12:32:02.217Z,8.73
2018-05-01T12:34:38.281Z,8.20
2018-05-01T12:37:06.573Z,12.43
2018-05-01T12:39:34.596Z,12.57
2018-05-01T12:42:03.398Z,11.07
2018-05-01T12:44:31.512Z,6.93
2018-05-01T12:46:59.631Z,4.00
2018-05-01T12:49:28.558Z,9.47
2018-05-01T12:51:56.700Z,7.67
2018-05-01T12:54:24.787Z,3.03
2018-05-01T12:56:52.896Z,10.40
2018-05-01T12:59:20.987Z,6.03
2018-05-01T13:01:49.103Z,8.60
2018-05-01T13:04:17.209Z,8.93
2018-05-01T13:06:46.138Z,6.60
2018-05-01T13:21:26.916Z,3.07
2018-05-01T13:23:56.732Z,10.07
2018-05-01T13:26:26.582Z,10.03
2018-05-01T13:28:56.415Z,5.33
2018-05-01T13:31:26.257Z,4.40
2018-05-01T13:33:56.091Z,5.47
2018-05-01T13:36:26.723Z,8.20
2018-05-01T13:38:56.550Z,6.80
2018-05-01T13:41:26.423Z,8.37
2018-05-01T13:43:56.263Z,4.53
2018-05-01T13:46:26.119Z,6.47
2018-05-01T13:48:56.014Z,7.77
2018-05-01T13:51:25.824Z,6.17
2018-05-01T13:53:55.673Z,8.83
2018-05-01T13:56:25.511Z,6.77
2018-05-01T13:58:55.391Z,6.30
2018-05-01T14:01:25.243Z,6.40
2018-05-01T14:03:55.109Z,3.77
2018-05-01T14:06:25.030Z,8.07
2018-05-01T14:08:54.823Z,7.37
2018-05-01T14:11:24.723Z,10.10
2018-05-01T14:13:54.572Z,4.83
2018-05-01T14:16:24.419Z,4.47
2018-05-01T14:18:53.932Z,8.60
2018-05-01T14:21:24.331Z,9.97
2018-05-01T14:23:54.181Z,7.63
2018-05-01T14:26:25.004Z,7.23
2018-05-01T14:28:54.857Z,6.70
2018-05-01T14:31:24.668Z,5.07
2018-05-01T14:33:56.568Z,3.70
2018-05-01T14:36:26.808Z,8.90
2018-05-01T14:38:56.805Z,10.07
2018-05-01T14:41:26.656Z,3.73
2018-05-01T14:43:56.478Z,4.70
2018-05-01T14:46:26.295Z,4.77
2018-05-01T14:48:56.127Z,7.17
2018-05-01T14:51:25.987Z,5.83
2018-05-01T14:53:55.811Z,4.30
2018-05-01T14:56:25.678Z,6.13
2018-05-01T14:58:55.495Z,5.53
2018-05-01T15:01:25.366Z,4.53
2018-05-01T15:03:54.849Z,4.27
2018-05-01T15:06:24.784Z,3.93
2018-05-01T15:08:54.707Z,3.63
2018-05-01T15:11:24.491Z,5.83
2018-05-01T15:13:54.372Z,4.17
2018-05-01T15:16:24.199Z,3.47
2018-05-01T15:18:54.034Z,3.67
2018-05-01T15:21:23.849Z,5.20
2018-05-01T15:23:53.892Z,4.80
2018-05-01T15:26:23.847Z,1.83
2018-05-01T15:28:53.992Z,3.43
2018-05-01T15:31:23.941Z,5.77
2018-05-01T15:33:53.726Z,4.60
2018-05-01T15:36:23.747Z,4.27
2018-05-01T15:38:53.563Z,4.97
2018-05-01T15:41:23.479Z,2.63
2018-05-01T15:43:54.119Z,5.27
2018-05-01T15:46:23.968Z,1.40
2018-05-01T15:48:53.852Z,4.00
2018-05-01T15:51:23.912Z,6.20
2018-05-01T15:53:54.058Z,2.63
2018-05-01T15:56:24.154Z,2.37
2018-05-01T15:58:53.965Z,4.50
2018-05-01T16:01:23.888Z,3.57
2018-05-01T16:03:53.725Z,2.40
2018-05-01T16:06:23.611Z,3.10
2018-05-01T16:08:54.622Z,1.63
2018-05-01T16:11:24.459Z,3.73
2018-05-01T16:13:54.385Z,3.23
2018-05-01T16:16:26.208Z,3.50
2018-05-01T16:18:56.140Z,2.77
2018-05-01T16:21:25.969Z,2.10
2018-05-01T16:23:55.820Z,4.93
2018-05-01T16:26:25.620Z,5.57
2018-05-01T16:28:55.474Z,6.13
2018-05-01T16:31:26.582Z,4.77
2018-05-01T16:33:56.605Z,4.73
2018-05-01T16:36:26.340Z,4.10
2018-05-01T16:38:56.183Z,7.43
2018-05-01T16:41:26.000Z,5.50
2018-05-01T16:43:55.806Z,3.27
2018-05-01T16:46:25.629Z,2.37
2018-05-01T16:48:55.544Z,11.70
2018-05-01T16:51:25.358Z,3.97
2018-05-01T16:53:55.200Z,3.50
2018-05-01T16:56:25.029Z,1.57
2018-05-01T16:58:55.315Z,7.67
2018-05-01T17:01:25.130Z,42.23
2018-05-01T17:03:55.015Z,70.13
2018-05-01T17:06:24.839Z,62.20
2018-05-01T17:08:54.692Z,195.63
2018-05-01T17:11:24.678Z,116.60
2018-05-01T17:13:54.517Z,87.57
2018-05-01T17:16:24.400Z,45.40
2018-05-01T17:18:54.220Z,50.57
2018-05-01T17:21:24.050Z,40.97
2018-05-01T17:23:53.895Z,33.70
2018-05-01T17:26:23.736Z,31.50
2018-05-01T17:28:53.558Z,28.67
2018-05-01T17:31:23.389Z,23.93
2018-05-01T17:33:53.286Z,35.10
2018-05-01T17:36:23.171Z,36.07
2018-05-01T17:38:53.096Z,14.07
2018-05-01T17:41:22.945Z,29.63
2018-05-01T17:43:52.818Z,27.00
2018-05-01T17:46:22.715Z,16.67
2018-05-01T17:48:52.701Z,29.00
2018-05-01T17:51:22.476Z,20.10
2018-05-01T17:53:52.319Z,7.90
2018-05-01T17:56:22.127Z,15.83
2018-05-01T17:58:52.039Z,21.50
2018-05-01T18:01:21.936Z,19.50
2018-05-01T18:03:51.789Z,23.13
2018-05-01T18:06:21.652Z,14.97
2018-05-01T18:08:51.501Z,14.73
2018-05-01T18:11:21.349Z,15.23
2018-05-01T18:13:51.221Z,15.33
2018-05-01T18:16:21.155Z,16.33
2018-05-01T18:18:52.836Z,14.47
2018-05-01T18:21:22.484Z,16.87
2018-05-01T18:23:52.412Z,12.13
2018-05-01T18:26:22.350Z,9.83
2018-05-01T18:28:52.180Z,13.47
2018-05-01T18:31:22.379Z,13.67
2018-05-01T18:33:52.730Z,12.43
2018-05-01T18:36:22.695Z,12.90
2018-05-01T18:38:52.753Z,12.30
2018-05-01T18:41:22.839Z,11.73
2018-05-01T18:43:52.701Z,10.13
2018-05-01T18:46:22.565Z,10.73
2018-05-01T18:48:52.515Z,9.23
2018-05-01T18:51:22.381Z,10.10
2018-05-01T18:53:52.251Z,10.10
2018-05-01T18:56:22.094Z,7.13
2018-05-01T18:58:51.977Z,9.60
2018-05-01T19:01:21.836Z,7.03
2018-05-01T19:03:51.774Z,8.03
2018-05-01T19:06:21.707Z,8.07
2018-05-01T19:08:51.623Z,6.23
2018-05-01T19:11:21.457Z,6.63
2018-05-01T19:13:51.395Z,6.97
2018-05-01T19:16:21.219Z,6.40
2018-05-01T19:18:51.442Z,7.80
2018-05-01T19:21:22.102Z,5.80
2018-05-01T19:23:52.043Z,8.20
2018-05-01T19:26:22.164Z,6.87
2018-05-01T19:28:52.131Z,6.53
2018-05-01T19:31:22.115Z,4.70
2018-05-01T19:33:52.000Z,7.10
2018-05-01T19:36:21.851Z,4.53
2018-05-01T19:38:51.339Z,4.70
2018-05-01T19:41:21.269Z,3.10
2018-05-01T19:43:50.780Z,5.30
2018-05-01T19:46:20.733Z,5.20
2018-05-01T19:48:50.610Z,5.23
2018-05-01T19:51:36.818Z,4.87
2018-05-01T19:54:06.735Z,4.20
2018-05-01T19:56:36.618Z,4.10
2018-05-01T19:59:06.388Z,3.57
2018-05-01T20:01:36.344Z,5.43
2018-05-01T20:04:06.210Z,5.07
2018-05-01T20:06:36.077Z,6.13
2018-05-01T20:09:06.073Z,3.57
2018-05-01T20:11:35.880Z,3.23
2018-05-01T20:14:05.759Z,4.90
2018-05-01T20:16:35.587Z,2.80
2018-05-01T20:19:05.444Z,4.03
2018-05-01T20:21:35.273Z,6.57
2018-05-01T20:24:05.100Z,6.37
2018-05-01T20:26:34.958Z,4.10
2018-05-01T20:29:05.216Z,3.20
2018-05-01T20:31:35.199Z,2.47
2018-05-01T20:34:05.443Z,2.47
2018-05-01T20:36:35.375Z,1.90
2018-05-01T20:39:06.331Z,4.17
2018-05-01T20:41:36.291Z,6.60
2018-05-01T20:44:06.200Z,2.47
2018-05-01T20:46:36.097Z,3.30
2018-05-01T20:49:05.992Z,3.37
2018-05-01T20:51:35.831Z,2.77
2018-05-01T20:54:05.674Z,3.53
2018-05-01T20:56:35.516Z,5.17
2018-05-01T20:59:05.535Z,2.97
2018-05-01T21:01:35.032Z,2.43
2018-05-01T21:04:04.985Z,4.80
2018-05-01T21:06:34.870Z,2.70
2018-05-01T21:09:05.527Z,3.13
2018-05-01T21:11:35.354Z,2.10
2018-05-01T21:14:05.188Z,2.43
2018-05-01T21:16:35.008Z,2.33
2018-05-01T21:19:04.901Z,3.03
2018-05-01T21:21:34.766Z,3.03
2018-05-01T21:24:04.604Z,1.67
2018-05-01T21:26:34.444Z,4.00
2018-05-01T21:29:04.306Z,4.30
2018-05-01T21:31:34.131Z,5.33
2018-05-01T21:36:58.764Z,2.10
2018-05-01T21:39:28.559Z,2.53
2018-05-01T21:41:58.427Z,2.27
2018-05-01T21:44:28.434Z,2.57
2018-05-01T21:46:59.418Z,2.63
2018-05-01T21:49:29.403Z,3.10
2018-05-01T21:51:59.276Z,2.60
2018-05-01T21:54:29.127Z,5.10
2018-05-01T21:56:59.407Z,3.33
2018-05-01T21:59:29.267Z,3.00
2018-05-01T22:01:59.140Z,2.40
2018-05-01T22:04:28.969Z,3.23
2018-05-01T22:06:58.852Z,2.13
2018-05-01T22:09:28.696Z,2.90
2018-05-01T22:11:58.683Z,2.20
2018-05-01T22:14:28.551Z,2.13
2018-05-01T22:16:58.415Z,1.77
2018-05-01T22:19:28.595Z,2.77
2018-05-01T22:21:58.460Z,2.83
2018-05-01T22:24:28.376Z,2.17
2018-05-01T22:26:58.197Z,4.07
2018-05-01T22:29:28.039Z,2.80
2018-05-01T22:31:57.935Z,3.93
2018-05-01T22:34:27.849Z,3.07
2018-05-01T22:36:57.800Z,1.70
2018-05-01T22:39:27.615Z,2.40
2018-05-01T22:41:57.463Z,1.73
2018-05-01T22:44:27.275Z,1.57
2018-05-01T22:46:57.175Z,1.93
2018-05-01T22:49:27.002Z,2.90
2018-05-01T22:51:56.850Z,2.07
2018-05-01T22:54:26.671Z,2.47
2018-05-01T22:56:56.543Z,2.33
2018-05-01T22:59:26.381Z,2.03
2018-05-01T23:01:56.214Z,3.00
2018-05-01T23:04:26.042Z,3.33
2018-05-01T23:06:55.878Z,2.07
2018-05-01T23:09:25.707Z,2.03
2018-05-01T23:11:55.614Z,1.90
2018-05-01T23:14:25.440Z,1.70
2018-05-01T23:16:55.309Z,2.27
2018-05-01T23:19:25.140Z,2.80
2018-05-01T23:21:54.962Z,1.80
2018-05-01T23:24:24.787Z,2.10
2018-05-01T23:26:54.647Z,1.60
2018-05-01T23:29:24.494Z,2.33
2018-05-01T23:31:54.341Z,3.47
2018-05-01T23:34:24.182Z,2.30
2018-05-01T23:36:54.012Z,1.80
2018-05-01T23:39:23.842Z,1.57
2018-05-01T23:41:53.697Z,2.10
2018-05-01T23:44:23.563Z,1.80
2018-05-01T23:46:53.397Z,1.70
2018-05-01T23:49:23.227Z,1.90
2018-05-01T23:51:53.075Z,2.67
2018-05-01T23:54:22.950Z,2.10
2018-05-01T23:56:52.766Z,1.67
2018-05-01T23:59:22.611Z,2.10
